sensor_id;sensor_type;location;lat;lon;timestamp;pressure;altitude;pressure_sealevel;temperature
75273;BMP280;63869;52.344;16.928;2023-02-04T00:00:14;100410.69;;;1.71
75273;BMP280;63869;52.344;16.928;2023-02-04T00:02:40;100422.38;;;1.90
75273;BMP280;63869;52.344;16.928;2023-02-04T00:05:06;100443.47;;;2.09
75273;BMP280;63869;52.344;16.928;2023-02-04T00:07:32;100458.50;;;2.24
75273;BMP280;63869;52.344;16.928;2023-02-04T00:09:57;100480.59;;;2.39
75273;BMP280;63869;52.344;16.928;2023-02-04T00:12:23;100478.09;;;2.46
75273;BMP280;63869;52.344;16.928;2023-02-04T00:14:48;100490.41;;;2.58
75273;BMP280;63869;52.344;16.928;2023-02-04T00:17:13;100525.44;;;2.78
75273;BMP280;63869;52.344;16.928;2023-02-04T00:19:39;100528.22;;;2.85
75273;BMP280;63869;52.344;16.928;2023-02-04T00:22:05;100534.53;;;2.80
75273;BMP280;63869;52.344;16.928;2023-02-04T00:24:31;100576.66;;;2.96
75273;BMP280;63869;52.344;16.928;2023-02-04T00:26:57;100564.97;;;2.97
75273;BMP280;63869;52.344;16.928;2023-02-04T00:29:22;100573.63;;;2.94
75273;BMP280;63869;52.344;16.928;2023-02-04T00:31:47;100589.47;;;2.94
75273;BMP280;63869;52.344;16.928;2023-02-04T00:34:13;100608.63;;;3.10
75273;BMP280;63869;52.344;16.928;2023-02-04T00:36:38;100615.91;;;2.97
75273;BMP280;63869;52.344;16.928;2023-02-04T00:39:03;100632.81;;;3.12
75273;BMP280;63869;52.344;16.928;2023-02-04T00:41:29;100654.78;;;3.16
75273;BMP280;63869;52.344;16.928;2023-02-04T00:43:54;100661.84;;;3.12
75273;BMP280;63869;52.344;16.928;2023-02-04T00:46:19;100691.75;;;3.16
75273;BMP280;63869;52.344;16.928;2023-02-04T00:48:44;100712.91;;;3.16
75273;BMP280;63869;52.344;16.928;2023-02-04T00:51:10;100703.56;;;3.03
75273;BMP280;63869;52.344;16.928;2023-02-04T00:53:35;100741.50;;;3.14
75273;BMP280;63869;52.344;16.928;2023-02-04T00:56:00;100734.56;;;3.06
75273;BMP280;63869;52.344;16.928;2023-02-04T00:58:26;100773.38;;;3.21
75273;BMP280;63869;52.344;16.928;2023-02-04T01:00:51;100768.69;;;3.15
75273;BMP280;63869;52.344;16.928;2023-02-04T01:03:16;100795.84;;;3.15
75273;BMP280;63869;52.344;16.928;2023-02-04T01:05:41;100795.78;;;3.12
75273;BMP280;63869;52.344;16.928;2023-02-04T01:08:07;100808.31;;;3.15
75273;BMP280;63869;52.344;16.928;2023-02-04T01:10:32;100862.13;;;3.26
75273;BMP280;63869;52.344;16.928;2023-02-04T01:12:58;100852.53;;;3.18
75273;BMP280;63869;52.344;16.928;2023-02-04T01:15:23;100871.91;;;3.25
75273;BMP280;63869;52.344;16.928;2023-02-04T01:17:48;100878.84;;;3.14
75273;BMP280;63869;52.344;16.928;2023-02-04T01:20:15;100903.91;;;3.20
75273;BMP280;63869;52.344;16.928;2023-02-04T01:22:41;100893.69;;;3.19
75273;BMP280;63869;52.344;16.928;2023-02-04T01:25:06;100920.34;;;3.14
75273;BMP280;63869;52.344;16.928;2023-02-04T01:27:32;100942.34;;;3.18
75273;BMP280;63869;52.344;16.928;2023-02-04T01:29:57;100956.31;;;3.18
75273;BMP280;63869;52.344;16.928;2023-02-04T01:32:22;100950.69;;;3.04
75273;BMP280;63869;52.344;16.928;2023-02-04T01:34:48;100982.22;;;3.13
75273;BMP280;63869;52.344;16.928;2023-02-04T01:37:13;100996.44;;;3.08
75273;BMP280;63869;52.344;16.928;2023-02-04T01:39:38;100991.56;;;2.94
75273;BMP280;63869;52.344;16.928;2023-02-04T01:42:04;100998.56;;;2.87
75273;BMP280;63869;52.344;16.928;2023-02-04T01:44:29;101027.34;;;2.92
75273;BMP280;63869;52.344;16.928;2023-02-04T01:46:55;101034.97;;;2.81
75273;BMP280;63869;52.344;16.928;2023-02-04T01:49:20;101055.66;;;2.79
75273;BMP280;63869;52.344;16.928;2023-02-04T01:51:46;101041.56;;;2.59
75273;BMP280;63869;52.344;16.928;2023-02-04T01:54:12;101081.31;;;2.66
75273;BMP280;63869;52.344;16.928;2023-02-04T01:56:39;101084.56;;;2.60
75273;BMP280;63869;52.344;16.928;2023-02-04T01:59:11;101076.75;;;2.51
75273;BMP280;63869;52.344;16.928;2023-02-04T02:01:40;101100.50;;;2.51
75273;BMP280;63869;52.344;16.928;2023-02-04T02:04:07;101103.72;;;2.32
75273;BMP280;63869;52.344;16.928;2023-02-04T02:06:34;101128.00;;;2.38
75273;BMP280;63869;52.344;16.928;2023-02-04T02:09:00;101136.47;;;2.31
75273;BMP280;63869;52.344;16.928;2023-02-04T02:11:26;101147.38;;;2.30
75273;BMP280;63869;52.344;16.928;2023-02-04T02:13:52;101147.69;;;2.16
75273;BMP280;63869;52.344;16.928;2023-02-04T02:16:18;101155.28;;;2.18
75273;BMP280;63869;52.344;16.928;2023-02-04T02:18:44;101184.09;;;2.23
75273;BMP280;63869;52.344;16.928;2023-02-04T02:21:11;101200.34;;;2.25
75273;BMP280;63869;52.344;16.928;2023-02-04T02:23:54;101209.56;;;2.19
75273;BMP280;63869;52.344;16.928;2023-02-04T02:26:25;101222.75;;;2.19
75273;BMP280;63869;52.344;16.928;2023-02-04T02:28:50;101224.63;;;2.18
75273;BMP280;63869;52.344;16.928;2023-02-04T02:31:20;101245.72;;;2.18
75273;BMP280;63869;52.344;16.928;2023-02-04T02:33:47;101258.34;;;2.12
75273;BMP280;63869;52.344;16.928;2023-02-04T02:36:12;101258.34;;;2.12
75273;BMP280;63869;52.344;16.928;2023-02-04T02:38:39;101253.63;;;2.06
75273;BMP280;63869;52.344;16.928;2023-02-04T02:41:05;101281.22;;;2.21
75273;BMP280;63869;52.344;16.928;2023-02-04T02:43:34;101308.50;;;2.25
75273;BMP280;63869;52.344;16.928;2023-02-04T02:46:00;101298.91;;;2.20
75273;BMP280;63869;52.344;16.928;2023-02-04T02:48:26;101312.69;;;2.26
75273;BMP280;63869;52.344;16.928;2023-02-04T02:50:51;101314.28;;;2.18
75273;BMP280;63869;52.344;16.928;2023-02-04T02:53:18;101308.91;;;2.14
75273;BMP280;63869;52.344;16.928;2023-02-04T02:55:44;101339.38;;;2.24
75273;BMP280;63869;52.344;16.928;2023-02-04T02:58:25;101336.50;;;2.17
75273;BMP280;63869;52.344;16.928;2023-02-04T03:00:53;101369.34;;;2.20
75273;BMP280;63869;52.344;16.928;2023-02-04T03:03:21;101388.94;;;2.31
75273;BMP280;63869;52.344;16.928;2023-02-04T03:05:51;101399.84;;;2.29
75273;BMP280;63869;52.344;16.928;2023-02-04T03:08:19;101403.91;;;2.27
75273;BMP280;63869;52.344;16.928;2023-02-04T03:10:44;101421.63;;;2.26
75273;BMP280;63869;52.344;16.928;2023-02-04T03:13:11;101418.38;;;2.21
75273;BMP280;63869;52.344;16.928;2023-02-04T03:15:38;101430.94;;;2.24
75273;BMP280;63869;52.344;16.928;2023-02-04T03:18:04;101432.53;;;2.16
75273;BMP280;63869;52.344;16.928;2023-02-04T03:20:31;101452.22;;;2.19
75273;BMP280;63869;52.344;16.928;2023-02-04T03:22:57;101462.31;;;2.17
75273;BMP280;63869;52.344;16.928;2023-02-04T03:25:25;101467.16;;;2.14
75273;BMP280;63869;52.344;16.928;2023-02-04T03:27:52;101483.94;;;2.10
75273;BMP280;63869;52.344;16.928;2023-02-04T03:30:19;101503.94;;;2.11
75273;BMP280;63869;52.344;16.928;2023-02-04T03:32:45;101510.97;;;2.07
75273;BMP280;63869;52.344;16.928;2023-02-04T03:35:10;101519.97;;;2.06
75273;BMP280;63869;52.344;16.928;2023-02-04T03:37:35;101514.72;;;1.97
75273;BMP280;63869;52.344;16.928;2023-02-04T03:40:01;101516.91;;;1.95
75273;BMP280;63869;52.344;16.928;2023-02-04T03:42:26;101540.44;;;2.00
75273;BMP280;63869;52.344;16.928;2023-02-04T03:44:51;101536.16;;;1.87
75273;BMP280;63869;52.344;16.928;2023-02-04T03:47:16;101542.81;;;1.93
75273;BMP280;63869;52.344;16.928;2023-02-04T03:49:42;101565.28;;;1.99
75273;BMP280;63869;52.344;16.928;2023-02-04T03:52:07;101554.97;;;1.86
75273;BMP280;63869;52.344;16.928;2023-02-04T03:54:32;101580.19;;;1.95
75273;BMP280;63869;52.344;16.928;2023-02-04T03:56:58;101581.59;;;1.93
75273;BMP280;63869;52.344;16.928;2023-02-04T03:59:23;101594.31;;;1.91
75273;BMP280;63869;52.344;16.928;2023-02-04T04:01:48;101606.72;;;1.90
75273;BMP280;63869;52.344;16.928;2023-02-04T04:04:14;101606.13;;;1.85
75273;BMP280;63869;52.344;16.928;2023-02-04T04:06:39;101620.41;;;1.83
75273;BMP280;63869;52.344;16.928;2023-02-04T04:09:04;101633.28;;;1.85
75273;BMP280;63869;52.344;16.928;2023-02-04T04:11:30;101633.28;;;1.85
75273;BMP280;63869;52.344;16.928;2023-02-04T04:13:57;101609.28;;;1.69
75273;BMP280;63869;52.344;16.928;2023-02-04T04:16:22;101650.19;;;1.84
75273;BMP280;63869;52.344;16.928;2023-02-04T04:18:47;101632.09;;;1.74
75273;BMP280;63869;52.344;16.928;2023-02-04T04:21:13;101643.53;;;1.78
75273;BMP280;63869;52.344;16.928;2023-02-04T04:23:38;101648.50;;;1.79
75273;BMP280;63869;52.344;16.928;2023-02-04T04:26:04;101650.34;;;1.79
75273;BMP280;63869;52.344;16.928;2023-02-04T04:28:29;101653.16;;;1.74
75273;BMP280;63869;52.344;16.928;2023-02-04T04:30:54;101661.34;;;1.72
75273;BMP280;63869;52.344;16.928;2023-02-04T04:33:20;101646.53;;;1.59
75273;BMP280;63869;52.344;16.928;2023-02-04T04:35:45;101687.91;;;1.76
75273;BMP280;63869;52.344;16.928;2023-02-04T04:38:10;101678.75;;;1.65
75273;BMP280;63869;52.344;16.928;2023-02-04T04:40:35;101672.09;;;1.59
75273;BMP280;63869;52.344;16.928;2023-02-04T04:43:01;101693.00;;;1.64
75273;BMP280;63869;52.344;16.928;2023-02-04T04:45:27;101697.81;;;1.62
75273;BMP280;63869;52.344;16.928;2023-02-04T04:47:52;101712.84;;;1.70
75273;BMP280;63869;52.344;16.928;2023-02-04T04:50:17;101724.78;;;1.67
75273;BMP280;63869;52.344;16.928;2023-02-04T04:52:43;101730.53;;;1.69
75273;BMP280;63869;52.344;16.928;2023-02-04T04:55:08;101732.53;;;1.72
75273;BMP280;63869;52.344;16.928;2023-02-04T04:57:34;101717.19;;;1.57
75273;BMP280;63869;52.344;16.928;2023-02-04T04:59:59;101732.41;;;1.60
75273;BMP280;63869;52.344;16.928;2023-02-04T05:02:24;101742.16;;;1.68
75273;BMP280;63869;52.344;16.928;2023-02-04T05:04:49;101745.41;;;1.65
75273;BMP280;63869;52.344;16.928;2023-02-04T05:07:15;101758.59;;;1.65
75273;BMP280;63869;52.344;16.928;2023-02-04T05:09:40;101755.34;;;1.60
75273;BMP280;63869;52.344;16.928;2023-02-04T05:12:05;101769.13;;;1.65
75273;BMP280;63869;52.344;16.928;2023-02-04T05:14:31;101784.16;;;1.65
75273;BMP280;63869;52.344;16.928;2023-02-04T05:16:56;101778.91;;;1.65
75273;BMP280;63869;52.344;16.928;2023-02-04T05:19:22;101793.16;;;1.64
75273;BMP280;63869;52.344;16.928;2023-02-04T05:21:47;101804.78;;;1.63
75273;BMP280;63869;52.344;16.928;2023-02-04T05:24:12;101797.63;;;1.55
75273;BMP280;63869;52.344;16.928;2023-02-04T05:26:37;101808.63;;;1.57
75273;BMP280;63869;52.344;16.928;2023-02-04T05:29:03;101826.66;;;1.63
75273;BMP280;63869;52.344;16.928;2023-02-04T05:31:28;101804.00;;;1.45
75273;BMP280;63869;52.344;16.928;2023-02-04T05:33:54;101847.75;;;1.63
75273;BMP280;63869;52.344;16.928;2023-02-04T05:36:19;101855.97;;;1.62
75273;BMP280;63869;52.344;16.928;2023-02-04T05:38:45;101866.19;;;1.63
75273;BMP280;63869;52.344;16.928;2023-02-04T05:41:11;101851.56;;;1.48
75273;BMP280;63869;52.344;16.928;2023-02-04T05:43:36;101883.69;;;1.59
75273;BMP280;63869;52.344;16.928;2023-02-04T05:46:01;101889.13;;;1.63
75273;BMP280;63869;52.344;16.928;2023-02-04T05:48:27;101895.50;;;1.62
75273;BMP280;63869;52.344;16.928;2023-02-04T05:50:52;101903.41;;;1.62
75273;BMP280;63869;52.344;16.928;2023-02-04T05:53:17;101890.03;;;1.49
75273;BMP280;63869;52.344;16.928;2023-02-04T05:55:43;101892.34;;;1.51
75273;BMP280;63869;52.344;16.928;2023-02-04T05:58:08;101917.66;;;1.61
75273;BMP280;63869;52.344;16.928;2023-02-04T06:00:33;101902.56;;;1.52
75273;BMP280;63869;52.344;16.928;2023-02-04T06:02:59;101914.38;;;1.55
75273;BMP280;63869;52.344;16.928;2023-02-04T06:05:24;101925.25;;;1.62
75273;BMP280;63869;52.344;16.928;2023-02-04T06:07:49;101912.97;;;1.58
75273;BMP280;63869;52.344;16.928;2023-02-04T06:10:15;101920.41;;;1.56
75273;BMP280;63869;52.344;16.928;2023-02-04T06:12:40;101935.81;;;1.71
75273;BMP280;63869;52.344;16.928;2023-02-04T06:15:06;101941.56;;;1.73
75273;BMP280;63869;52.344;16.928;2023-02-04T06:17:31;101948.41;;;1.74
75273;BMP280;63869;52.344;16.928;2023-02-04T06:19:57;101966.25;;;1.77
75273;BMP280;63869;52.344;16.928;2023-02-04T06:22:23;101978.47;;;1.73
75273;BMP280;63869;52.344;16.928;2023-02-04T06:24:50;101993.69;;;1.76
75273;BMP280;63869;52.344;16.928;2023-02-04T06:27:15;102002.53;;;1.80
75273;BMP280;63869;52.344;16.928;2023-02-04T06:29:51;101991.16;;;1.71
75273;BMP280;63869;52.344;16.928;2023-02-04T06:32:17;102008.75;;;1.84
75273;BMP280;63869;52.344;16.928;2023-02-04T06:34:42;102017.56;;;1.88
75273;BMP280;63869;52.344;16.928;2023-02-04T06:37:08;102003.31;;;1.80
75273;BMP280;63869;52.344;16.928;2023-02-04T06:39:33;102030.63;;;1.93
75273;BMP280;63869;52.344;16.928;2023-02-04T06:41:58;102017.44;;;1.93
75273;BMP280;63869;52.344;16.928;2023-02-04T06:44:23;102016.06;;;1.96
75273;BMP280;63869;52.344;16.928;2023-02-04T06:46:49;102041.72;;;2.12
75273;BMP280;63869;52.344;16.928;2023-02-04T06:49:14;102023.34;;;1.99
75273;BMP280;63869;52.344;16.928;2023-02-04T06:51:39;102043.75;;;2.16
75273;BMP280;63869;52.344;16.928;2023-02-04T06:54:05;102055.41;;;2.23
75273;BMP280;63869;52.344;16.928;2023-02-04T06:56:30;102065.34;;;2.35
75273;BMP280;63869;52.344;16.928;2023-02-04T06:58:56;102065.97;;;2.40
75273;BMP280;63869;52.344;16.928;2023-02-04T07:01:21;102070.03;;;2.47
75273;BMP280;63869;52.344;16.928;2023-02-04T07:03:46;102076.41;;;2.54
75273;BMP280;63869;52.344;16.928;2023-02-04T07:06:12;102074.25;;;2.56
75273;BMP280;63869;52.344;16.928;2023-02-04T07:08:38;102080.31;;;2.57
75273;BMP280;63869;52.344;16.928;2023-02-04T07:11:04;102078.84;;;1.85
75273;BMP280;63869;52.344;16.928;2023-02-04T07:13:29;102076.16;;;1.45
75273;BMP280;63869;52.344;16.928;2023-02-04T07:15:54;102084.47;;;1.30
75273;BMP280;63869;52.344;16.928;2023-02-04T07:18:20;102094.97;;;1.08
75273;BMP280;63869;52.344;16.928;2023-02-04T07:20:46;102080.41;;;0.88
75273;BMP280;63869;52.344;16.928;2023-02-04T07:23:12;102109.66;;;0.86
75273;BMP280;63869;52.344;16.928;2023-02-04T07:25:37;102099.91;;;0.73
75273;BMP280;63869;52.344;16.928;2023-02-04T07:28:03;102118.75;;;0.80
75273;BMP280;63869;52.344;16.928;2023-02-04T07:30:30;102117.38;;;0.69
75273;BMP280;63869;52.344;16.928;2023-02-04T07:32:55;102128.97;;;0.54
75273;BMP280;63869;52.344;16.928;2023-02-04T07:35:21;102113.97;;;0.41
75273;BMP280;63869;52.344;16.928;2023-02-04T07:37:46;102125.47;;;0.32
75273;BMP280;63869;52.344;16.928;2023-02-04T07:40:12;102082.22;;;-0.04
75273;BMP280;63869;52.344;16.928;2023-02-04T07:42:37;102136.09;;;0.26
75273;BMP280;63869;52.344;16.928;2023-02-04T07:45:03;102140.97;;;0.33
75273;BMP280;63869;52.344;16.928;2023-02-04T07:47:28;102157.25;;;0.49
75273;BMP280;63869;52.344;16.928;2023-02-04T07:49:53;102161.63;;;0.53
75273;BMP280;63869;52.344;16.928;2023-02-04T07:52:22;102169.41;;;0.58
75273;BMP280;63869;52.344;16.928;2023-02-04T07:54:47;102162.78;;;0.61
75273;BMP280;63869;52.344;16.928;2023-02-04T07:57:13;102184.72;;;0.70
75273;BMP280;63869;52.344;16.928;2023-02-04T07:59:38;102184.03;;;0.78
75273;BMP280;63869;52.344;16.928;2023-02-04T08:02:03;102175.94;;;0.75
75273;BMP280;63869;52.344;16.928;2023-02-04T08:04:29;102165.72;;;0.73
75273;BMP280;63869;52.344;16.928;2023-02-04T08:06:54;102164.81;;;0.91
75273;BMP280;63869;52.344;16.928;2023-02-04T08:09:20;102174.97;;;0.98
75273;BMP280;63869;52.344;16.928;2023-02-04T08:11:45;102155.47;;;0.85
75273;BMP280;63869;52.344;16.928;2023-02-04T08:14:11;102175.16;;;1.02
75273;BMP280;63869;52.344;16.928;2023-02-04T08:16:36;102178.75;;;1.06
75273;BMP280;63869;52.344;16.928;2023-02-04T08:19:02;102187.63;;;1.10
75273;BMP280;63869;52.344;16.928;2023-02-04T08:21:28;102198.16;;;1.10
75273;BMP280;63869;52.344;16.928;2023-02-04T08:23:53;102187.84;;;1.00
75273;BMP280;63869;52.344;16.928;2023-02-04T08:26:18;102207.34;;;1.12
75273;BMP280;63869;52.344;16.928;2023-02-04T08:28:43;102212.38;;;1.09
75273;BMP280;63869;52.344;16.928;2023-02-04T08:31:09;102230.94;;;1.04
75273;BMP280;63869;52.344;16.928;2023-02-04T08:33:38;102237.16;;;1.08
75273;BMP280;63869;52.344;16.928;2023-02-04T08:36:05;102246.63;;;1.09
75273;BMP280;63869;52.344;16.928;2023-02-04T08:38:30;102236.03;;;1.00
75273;BMP280;63869;52.344;16.928;2023-02-04T08:40:56;102216.88;;;0.95
75273;BMP280;63869;52.344;16.928;2023-02-04T08:43:21;102239.91;;;1.03
75273;BMP280;63869;52.344;16.928;2023-02-04T08:45:47;102232.31;;;0.87
75273;BMP280;63869;52.344;16.928;2023-02-04T08:48:12;102244.41;;;0.88
75273;BMP280;63869;52.344;16.928;2023-02-04T08:50:37;102247.03;;;0.88
75273;BMP280;63869;52.344;16.928;2023-02-04T08:53:02;102255.03;;;0.97
75273;BMP280;63869;52.344;16.928;2023-02-04T08:55:28;102263.31;;;1.04
75273;BMP280;63869;52.344;16.928;2023-02-04T08:57:54;102248.22;;;0.96
75273;BMP280;63869;52.344;16.928;2023-02-04T09:00:20;102258.16;;;0.99
75273;BMP280;63869;52.344;16.928;2023-02-04T09:02:45;102242.44;;;0.94
75273;BMP280;63869;52.344;16.928;2023-02-04T09:05:11;102270.56;;;1.12
75273;BMP280;63869;52.344;16.928;2023-02-04T09:07:38;102268.28;;;1.19
75273;BMP280;63869;52.344;16.928;2023-02-04T09:10:04;102275.78;;;1.26
75273;BMP280;63869;52.344;16.928;2023-02-04T09:12:29;102255.59;;;1.21
75273;BMP280;63869;52.344;16.928;2023-02-04T09:14:56;102266.44;;;1.34
75273;BMP280;63869;52.344;16.928;2023-02-04T09:17:21;102256.31;;;1.27
75273;BMP280;63869;52.344;16.928;2023-02-04T09:19:46;102281.13;;;1.35
75273;BMP280;63869;52.344;16.928;2023-02-04T09:22:12;102280.06;;;1.36
75273;BMP280;63869;52.344;16.928;2023-02-04T09:24:37;102267.03;;;1.31
75273;BMP280;63869;52.344;16.928;2023-02-04T09:27:03;102261.31;;;1.37
75273;BMP280;63869;52.344;16.928;2023-02-04T09:29:28;102282.38;;;1.37
75273;BMP280;63869;52.344;16.928;2023-02-04T09:31:53;102286.50;;;1.43
75273;BMP280;63869;52.344;16.928;2023-02-04T09:34:18;102279.75;;;1.37
75273;BMP280;63869;52.344;16.928;2023-02-04T09:36:44;102289.69;;;1.40
75273;BMP280;63869;52.344;16.928;2023-02-04T09:39:09;102290.44;;;1.32
75273;BMP280;63869;52.344;16.928;2023-02-04T09:41:40;102293.53;;;1.34
75273;BMP280;63869;52.344;16.928;2023-02-04T09:44:13;102293.34;;;1.44
75273;BMP280;63869;52.344;16.928;2023-02-04T09:46:39;102308.31;;;1.58
75273;BMP280;63869;52.344;16.928;2023-02-04T09:49:08;102309.50;;;1.51
75273;BMP280;63869;52.344;16.928;2023-02-04T09:51:34;102304.53;;;1.50
75273;BMP280;63869;52.344;16.928;2023-02-04T09:54:11;102325.00;;;1.67
75273;BMP280;63869;52.344;16.928;2023-02-04T09:56:37;102311.94;;;1.62
75273;BMP280;63869;52.344;16.928;2023-02-04T09:59:10;102317.31;;;1.57
75273;BMP280;63869;52.344;16.928;2023-02-04T10:01:36;102326.69;;;1.63
75273;BMP280;63869;52.344;16.928;2023-02-04T10:04:01;102319.47;;;1.55
75273;BMP280;63869;52.344;16.928;2023-02-04T10:06:27;102307.94;;;1.50
75273;BMP280;63869;52.344;16.928;2023-02-04T10:08:53;102332.25;;;1.75
75273;BMP280;63869;52.344;16.928;2023-02-04T10:11:20;102332.72;;;1.77
75273;BMP280;63869;52.344;16.928;2023-02-04T10:13:49;102324.03;;;1.76
75273;BMP280;63869;52.344;16.928;2023-02-04T10:16:25;102334.34;;;1.87
75273;BMP280;63869;52.344;16.928;2023-02-04T10:18:55;102319.75;;;1.89
75273;BMP280;63869;52.344;16.928;2023-02-04T10:21:26;102338.47;;;2.01
75273;BMP280;63869;52.344;16.928;2023-02-04T10:23:55;102331.25;;;2.07
75273;BMP280;63869;52.344;16.928;2023-02-04T10:26:21;102334.13;;;2.19
75273;BMP280;63869;52.344;16.928;2023-02-04T10:28:47;102341.16;;;2.24
75273;BMP280;63869;52.344;16.928;2023-02-04T10:31:36;102343.66;;;2.29
75273;BMP280;63869;52.344;16.928;2023-02-04T10:34:11;102342.13;;;2.28
75273;BMP280;63869;52.344;16.928;2023-02-04T10:36:38;102335.41;;;2.22
75273;BMP280;63869;52.344;16.928;2023-02-04T10:39:09;102345.31;;;2.47
75273;BMP280;63869;52.344;16.928;2023-02-04T10:41:43;102359.00;;;2.80
75273;BMP280;63869;52.344;16.928;2023-02-04T10:44:11;102354.44;;;2.94
75273;BMP280;63869;52.344;16.928;2023-02-04T10:46:36;102344.66;;;3.03
75273;BMP280;63869;52.344;16.928;2023-02-04T10:49:19;102368.81;;;3.19
75273;BMP280;63869;52.344;16.928;2023-02-04T10:51:46;102346.25;;;3.13
75273;BMP280;63869;52.344;16.928;2023-02-04T10:54:13;102351.88;;;3.20
75273;BMP280;63869;52.344;16.928;2023-02-04T10:59:41;102367.72;;;3.20
75273;BMP280;63869;52.344;16.928;2023-02-04T11:04:54;102372.84;;;3.17
75273;BMP280;63869;52.344;16.928;2023-02-04T11:07:20;102340.56;;;2.89
75273;BMP280;63869;52.344;16.928;2023-02-04T11:09:47;102363.63;;;3.05
75273;BMP280;63869;52.344;16.928;2023-02-04T11:12:34;102377.16;;;3.04
75273;BMP280;63869;52.344;16.928;2023-02-04T11:14:59;102364.66;;;2.96
75273;BMP280;63869;52.344;16.928;2023-02-04T11:17:29;102351.34;;;3.01
75273;BMP280;63869;52.344;16.928;2023-02-04T11:19:55;102388.03;;;3.11
75273;BMP280;63869;52.344;16.928;2023-02-04T11:22:40;102395.88;;;3.16
75273;BMP280;63869;52.344;16.928;2023-02-04T11:25:32;102388.03;;;3.11
75273;BMP280;63869;52.344;16.928;2023-02-04T11:27:58;102397.19;;;3.05
75273;BMP280;63869;52.344;16.928;2023-02-04T11:30:30;102400.94;;;3.04
75273;BMP280;63869;52.344;16.928;2023-02-04T11:33:04;102393.28;;;2.94
75273;BMP280;63869;52.344;16.928;2023-02-04T11:35:30;102405.28;;;3.08
75273;BMP280;63869;52.344;16.928;2023-02-04T11:37:57;102406.34;;;3.38
75273;BMP280;63869;52.344;16.928;2023-02-04T11:40:30;102414.50;;;3.68
75273;BMP280;63869;52.344;16.928;2023-02-04T11:42:58;102398.16;;;3.75
75273;BMP280;63869;52.344;16.928;2023-02-04T11:45:28;102405.31;;;3.65
75273;BMP280;63869;52.344;16.928;2023-02-04T11:47:57;102407.59;;;3.50
75273;BMP280;63869;52.344;16.928;2023-02-04T11:50:32;102406.03;;;3.40
75273;BMP280;63869;52.344;16.928;2023-02-04T11:52:58;102412.41;;;3.39
75273;BMP280;63869;52.344;16.928;2023-02-04T11:55:26;102410.50;;;3.22
75273;BMP280;63869;52.344;16.928;2023-02-04T11:57:55;102404.75;;;3.20
75273;BMP280;63869;52.344;16.928;2023-02-04T12:00:31;102405.66;;;3.16
75273;BMP280;63869;52.344;16.928;2023-02-04T12:03:04;102397.41;;;3.17
75273;BMP280;63869;52.344;16.928;2023-02-04T12:05:39;102404.13;;;3.23
75273;BMP280;63869;52.344;16.928;2023-02-04T12:11:03;102414.06;;;3.26
75273;BMP280;63869;52.344;16.928;2023-02-04T12:13:30;102419.56;;;3.38
75273;BMP280;63869;52.344;16.928;2023-02-04T12:16:04;102422.38;;;3.51
75273;BMP280;63869;52.344;16.928;2023-02-04T12:18:31;102412.13;;;3.58
75273;BMP280;63869;52.344;16.928;2023-02-04T12:20:58;102429.75;;;3.80
75273;BMP280;63869;52.344;16.928;2023-02-04T12:23:25;102426.19;;;4.01
75273;BMP280;63869;52.344;16.928;2023-02-04T12:25:51;102425.09;;;4.02
75273;BMP280;63869;52.344;16.928;2023-02-04T12:28:17;102432.44;;;4.14
75273;BMP280;63869;52.344;16.928;2023-02-04T12:30:42;102443.31;;;4.04
75273;BMP280;63869;52.344;16.928;2023-02-04T12:33:08;102433.50;;;3.79
75273;BMP280;63869;52.344;16.928;2023-02-04T12:35:33;102437.06;;;3.65
75273;BMP280;63869;52.344;16.928;2023-02-04T12:37:59;102445.53;;;3.36
75273;BMP280;63869;52.344;16.928;2023-02-04T12:40:25;102424.22;;;3.02
75273;BMP280;63869;52.344;16.928;2023-02-04T12:42:50;102450.38;;;3.12
75273;BMP280;63869;52.344;16.928;2023-02-04T12:45:16;102454.97;;;2.98
75273;BMP280;63869;52.344;16.928;2023-02-04T12:47:42;102460.25;;;2.98
75273;BMP280;63869;52.344;16.928;2023-02-04T12:50:10;102451.38;;;2.94
75273;BMP280;63869;52.344;16.928;2023-02-04T12:52:35;102466.50;;;2.80
75273;BMP280;63869;52.344;16.928;2023-02-04T12:55:02;102456.22;;;2.69
75273;BMP280;63869;52.344;16.928;2023-02-04T12:57:30;102436.94;;;2.47
75273;BMP280;63869;52.344;16.928;2023-02-04T12:59:55;102467.56;;;2.70
75273;BMP280;63869;52.344;16.928;2023-02-04T13:02:24;102472.56;;;2.80
75273;BMP280;63869;52.344;16.928;2023-02-04T13:04:49;102481.88;;;2.78
75273;BMP280;63869;52.344;16.928;2023-02-04T13:07:15;102476.13;;;2.75
75273;BMP280;63869;52.344;16.928;2023-02-04T13:09:40;102474.19;;;2.67
75273;BMP280;63869;52.344;16.928;2023-02-04T13:12:06;102460.88;;;2.50
75273;BMP280;63869;52.344;16.928;2023-02-04T13:14:31;102468.41;;;2.57
75273;BMP280;63869;52.344;16.928;2023-02-04T13:16:57;102479.97;;;2.69
75273;BMP280;63869;52.344;16.928;2023-02-04T13:19:22;102474.19;;;2.67
75273;BMP280;63869;52.344;16.928;2023-02-04T13:21:48;102475.53;;;2.79
75273;BMP280;63869;52.344;16.928;2023-02-04T13:24:13;102472.38;;;2.99
75273;BMP280;63869;52.344;16.928;2023-02-04T13:26:38;102471.34;;;3.39
75273;BMP280;63869;52.344;16.928;2023-02-04T13:29:04;102482.84;;;3.83
75273;BMP280;63869;52.344;16.928;2023-02-04T13:31:29;102464.34;;;4.18
75273;BMP280;63869;52.344;16.928;2023-02-04T13:33:54;102475.88;;;4.56
75273;BMP280;63869;52.344;16.928;2023-02-04T13:36:21;102480.34;;;4.90
75273;BMP280;63869;52.344;16.928;2023-02-04T13:38:46;102476.94;;;5.19
75273;BMP280;63869;52.344;16.928;2023-02-04T13:41:11;102456.28;;;5.34
75273;BMP280;63869;52.344;16.928;2023-02-04T13:43:36;102475.25;;;5.53
75273;BMP280;63869;52.344;16.928;2023-02-04T13:46:02;102476.25;;;5.69
75273;BMP280;63869;52.344;16.928;2023-02-04T13:48:30;102473.66;;;5.52
75273;BMP280;63869;52.344;16.928;2023-02-04T13:50:56;102473.47;;;5.27
75273;BMP280;63869;52.344;16.928;2023-02-04T13:53:21;102478.53;;;5.12
75273;BMP280;63869;52.344;16.928;2023-02-04T13:55:47;102487.78;;;4.97
75273;BMP280;63869;52.344;16.928;2023-02-04T13:58:12;102493.91;;;4.89
75273;BMP280;63869;52.344;16.928;2023-02-04T14:00:37;102483.50;;;4.58